Time;durP1;ratioP1;P1;durP2;ratioP2;P2;SDS_P1;SDS_P2;PMS_P1;PMS_P2;Temp;Humidity;BMP_temperature;BMP_pressure;BME280_temperature;BME280_humidity;BME280_pressure;Samples;Min_cycle;Max_cycle;Signal;HPM_P1;HPM_P2
2023/06/17 00:01:15;;;;;;;6.70;3.85;;;20.40;67.60;;;;;;4962115;28;20027;-84
2023/06/17 00:03:41;;;;;;;5.47;3.75;;;20.40;67.70;;;;;;4979442;28;20089;-92
2023/06/17 00:06:06;;;;;;;5.03;3.85;;;20.30;67.90;;;;;;4979983;28;20031;-91
2023/06/17 00:08:32;;;;;;;5.13;3.63;;;20.30;68.10;;;;;;4962186;28;20137;-92
2023/06/17 00:10:57;;;;;;;5.55;3.40;;;20.30;68.40;;;;;;4979943;28;20050;-95
2023/06/17 00:13:25;;;;;;;5.20;3.35;;;20.30;68.60;;;;;;4979784;28;20041;-95
2023/06/17 00:15:50;;;;;;;6.55;4.03;;;20.30;68.90;;;;;;4980348;28;20122;-95
2023/06/17 00:18:19;;;;;;;7.10;4.10;;;20.20;69.00;;;;;;4960572;28;20514;-88
2023/06/17 00:20:46;;;;;;;6.13;3.97;;;20.20;69.80;;;;;;4961349;28;20031;-95
2023/06/17 00:23:12;;;;;;;7.03;4.15;;;20.20;69.30;;;;;;4960679;28;20041;-88
2023/06/17 00:25:38;;;;;;;6.70;3.80;;;20.10;69.50;;;;;;4960930;28;20023;-95
2023/06/17 00:28:03;;;;;;;6.55;4.00;;;20.00;69.70;;;;;;4961216;28;20026;-94
2023/06/17 00:30:29;;;;;;;7.47;3.92;;;20.00;70.00;;;;;;4977410;28;20450;-95
2023/06/17 00:32:55;;;;;;;5.88;3.80;;;20.00;70.00;;;;;;4960395;28;20117;-95
2023/06/17 00:35:20;;;;;;;5.82;3.63;;;19.90;70.20;;;;;;4958452;28;20035;-95
2023/06/17 00:37:46;;;;;;;10.23;4.53;;;19.90;70.50;;;;;;4958998;28;20022;-96
2023/06/17 00:40:12;;;;;;;6.63;4.40;;;19.80;70.80;;;;;;4975827;28;20035;-95
2023/06/17 00:42:39;;;;;;;9.63;4.15;;;19.80;70.90;;;;;;4958304;28;20030;-89
2023/06/17 00:45:06;;;;;;;8.30;3.88;;;19.80;71.00;;;;;;4958939;28;20037;-89
2023/06/17 00:47:31;;;;;;;6.85;4.05;;;19.70;71.10;;;;;;4957586;28;20558;-90
2023/06/17 00:49:57;;;;;;;6.82;4.10;;;19.70;71.10;;;;;;4958465;28;20031;-90
2023/06/17 00:52:23;;;;;;;5.88;3.95;;;19.70;71.30;;;;;;4959965;28;20038;-89
2023/06/17 00:54:50;;;;;;;6.25;4.00;;;19.70;71.60;;;;;;4965932;28;20030;-90
2023/06/17 00:57:16;;;;;;;7.85;4.25;;;19.60;71.80;;;;;;4984860;28;20034;-82
2023/06/17 00:59:43;;;;;;;6.85;3.90;;;19.50;71.90;;;;;;4960404;28;20023;-90
2023/06/17 01:02:11;;;;;;;6.45;3.90;;;19.50;72.30;;;;;;4963526;28;20027;-91
2023/06/17 01:04:48;;;;;;;6.68;4.22;;;19.40;72.90;;;;;;4965971;28;20491;-91
2023/06/17 01:07:40;;;;;;;5.97;3.88;;;19.40;73.50;;;;;;4984121;28;20019;-91
2023/06/17 01:10:12;;;;;;;;;;;19.10;74.50;;;;;;4983514;28;20051;-91
2023/06/17 01:12:41;;;;;;;4.60;3.90;;;19.20;74.60;;;;;;4966216;28;19952;-92
2023/06/17 01:15:10;;;;;;;8.32;4.00;;;19.20;74.20;;;;;;4963907;28;20551;-96
2023/06/17 01:17:36;;;;;;;8.32;4.40;;;19.10;74.40;;;;;;4966187;28;20510;-96
2023/06/17 01:20:05;;;;;;;7.43;4.20;;;19.10;74.50;;;;;;4980305;28;20476;-95
2023/06/17 01:22:33;;;;;;;5.80;4.18;;;19.00;74.90;;;;;;4979776;28;20026;-95
2023/06/17 01:25:01;;;;;;;7.53;4.53;;;19.00;75.20;;;;;;4966902;28;20053;-95
2023/06/17 01:27:28;;;;;;;6.85;4.22;;;18.90;75.60;;;;;;4983058;28;20034;-93
2023/06/17 01:29:54;;;;;;;5.35;3.92;;;18.80;75.80;;;;;;4966865;28;20391;-93
2023/06/17 01:32:20;;;;;;;7.75;4.35;;;18.80;76.30;;;;;;4978590;28;20110;-84
2023/06/17 01:34:48;;;;;;;8.02;4.07;;;18.90;76.30;;;;;;4960137;28;20035;-90
2023/06/17 01:37:20;;;;;;;5.57;4.00;;;18.80;76.50;;;;;;4978992;28;20058;-90
2023/06/17 01:39:48;;;;;;;7.05;4.40;;;18.80;76.70;;;;;;4966980;28;20391;-91
2023/06/17 01:42:20;;;;;;;8.35;4.40;;;18.90;77.00;;;;;;4964411;28;20031;-90
2023/06/17 01:44:47;;;;;;;5.95;4.55;;;18.90;77.00;;;;;;4962193;28;20081;-90
2023/06/17 01:47:13;;;;;;;8.95;4.55;;;18.90;77.30;;;;;;4959421;28;20057;-90
2023/06/17 01:49:39;;;;;;;11.15;4.32;;;18.80;77.20;;;;;;4958066;28;20062;-95
2023/06/17 01:52:06;;;;;;;6.93;4.45;;;18.80;77.60;;;;;;4975806;28;20030;-95
2023/06/17 01:54:33;;;;;;;7.65;4.65;;;18.60;77.80;;;;;;4975135;28;20118;-95
2023/06/17 01:57:00;;;;;;;5.93;4.18;;;18.50;77.40;;;;;;4958430;28;20031;-95
2023/06/17 01:59:26;;;;;;;8.60;4.07;;;18.50;77.30;;;;;;4958220;28;20027;-96
2023/06/17 02:01:52;;;;;;;5.22;3.92;;;18.50;77.10;;;;;;4961531;28;20062;-95
2023/06/17 02:04:17;;;;;;;7.00;3.92;;;18.60;76.60;;;;;;4961682;28;20034;-95
2023/06/17 02:06:43;;;;;;;5.82;3.72;;;18.60;77.00;;;;;;4978321;28;20023;-95
2023/06/17 02:09:09;;;;;;;8.05;4.20;;;18.60;76.20;;;;;;4978803;28;20027;-95
2023/06/17 02:11:34;;;;;;;6.53;4.10;;;18.60;76.30;;;;;;4978594;28;20047;-94
2023/06/17 02:14:00;;;;;;;6.70;3.97;;;18.50;76.40;;;;;;4961665;28;20058;-96
2023/06/17 02:16:25;;;;;;;5.75;4.10;;;18.40;76.70;;;;;;4961291;28;20035;-95
2023/06/17 02:18:54;;;;;;;6.25;4.30;;;18.40;76.60;;;;;;4978449;28;20066;-95
2023/06/17 02:21:20;;;;;;;7.05;4.22;;;18.40;76.50;;;;;;4960706;28;20121;-89
2023/06/17 02:23:49;;;;;;;6.15;3.97;;;18.30;76.70;;;;;;4978323;28;20073;-96
2023/06/17 02:26:17;;;;;;;5.47;4.05;;;18.30;76.80;;;;;;4978019;28;20023;-95
2023/06/17 02:28:43;;;;;;;6.45;3.92;;;18.20;77.00;;;;;;4960798;28;20358;-95
2023/06/17 02:31:09;;;;;;;5.68;4.18;;;18.20;77.40;;;;;;4961089;28;20473;-95
2023/06/17 02:33:35;;;;;;;6.60;3.97;;;18.10;78.10;;;;;;4960492;28;20057;-96
2023/06/17 02:36:01;;;;;;;5.32;3.85;;;18.00;78.40;;;;;;4978069;28;20033;-95
2023/06/17 02:38:28;;;;;;;8.38;4.32;;;18.00;79.50;;;;;;4978059;28;20030;-95
2023/06/17 02:40:53;;;;;;;6.35;4.50;;;18.00;79.00;;;;;;4960874;28;20086;-95
2023/06/17 02:43:19;;;;;;;8.00;4.70;;;17.90;79.70;;;;;;4960969;28;20039;-95
2023/06/17 02:45:45;;;;;;;7.22;4.45;;;17.80;80.50;;;;;;4976791;28;20030;-96
2023/06/17 02:48:10;;;;;;;8.68;4.07;;;17.80;81.10;;;;;;4978292;28;20027;-95
2023/06/17 02:50:36;;;;;;;5.97;4.15;;;17.80;81.40;;;;;;4960501;28;20031;-96
2023/06/17 02:53:04;;;;;;;5.85;4.68;;;17.80;81.70;;;;;;4961777;28;20031;-96
2023/06/17 02:55:30;;;;;;;6.85;4.65;;;17.80;81.90;;;;;;4960108;28;20031;-95
2023/06/17 02:57:56;;;;;;;8.43;4.45;;;17.70;82.40;;;;;;4978449;28;20034;-93
2023/06/17 03:00:22;;;;;;;5.50;3.95;;;17.70;82.70;;;;;;4963383;28;20030;-88
2023/06/17 03:02:48;;;;;;;8.20;4.72;;;17.80;82.60;;;;;;4963413;28;20053;-94
2023/06/17 03:05:14;;;;;;;7.28;4.88;;;17.80;82.80;;;;;;4963157;28;20089;-91
2023/06/17 03:07:40;;;;;;;7.22;4.18;;;17.70;83.30;;;;;;4961204;28;20027;-94
2023/06/17 03:10:07;;;;;;;6.20;4.25;;;17.70;83.30;;;;;;4960365;28;20047;-96
2023/06/17 03:12:32;;;;;;;7.05;4.13;;;17.70;83.20;;;;;;4976939;28;20054;-95
2023/06/17 03:14:58;;;;;;;8.77;4.53;;;17.70;83.40;;;;;;4960324;28;20038;-96
2023/06/17 03:17:27;;;;;;;7.03;4.35;;;17.60;83.60;;;;;;4959936;28;20023;-87
2023/06/17 03:19:53;;;;;;;6.90;4.40;;;17.70;83.80;;;;;;4960276;28;20035;-94
2023/06/17 03:22:18;;;;;;;8.52;4.45;;;17.60;83.80;;;;;;4959958;28;20114;-94
2023/06/17 03:24:44;;;;;;;7.30;4.65;;;17.50;84.70;;;;;;4976761;28;20030;-95
2023/06/17 03:27:11;;;;;;;8.10;4.43;;;17.40;85.30;;;;;;4960351;28;20031;-94
2023/06/17 03:29:36;;;;;;;6.68;4.68;;;17.30;85.60;;;;;;4959695;28;20030;-94
2023/06/17 03:32:02;;;;;;;7.75;4.75;;;17.30;86.00;;;;;;4960112;28;20031;-94
2023/06/17 03:34:27;;;;;;;7.13;4.80;;;17.30;86.00;;;;;;4959656;28;20027;-86
2023/06/17 03:36:53;;;;;;;7.43;4.25;;;17.40;85.80;;;;;;4960247;28;20458;-94
2023/06/17 03:39:19;;;;;;;8.15;4.00;;;17.30;86.20;;;;;;4959897;28;20027;-94
2023/06/17 03:41:45;;;;;;;6.85;4.50;;;17.10;86.90;;;;;;4977388;28;20051;-96
2023/06/17 03:44:10;;;;;;;7.88;4.72;;;17.20;87.40;;;;;;4996367;28;20088;-96
2023/06/17 03:46:36;;;;;;;6.72;4.28;;;17.20;87.00;;;;;;4978503;28;20041;-94
2023/06/17 03:49:02;;;;;;;9.05;5.13;;;17.20;86.90;;;;;;4996197;28;20038;-94
2023/06/17 03:51:28;;;;;;;9.57;5.35;;;17.20;87.00;;;;;;4995830;28;20033;-95
2023/06/17 03:53:53;;;;;;;6.60;4.60;;;17.20;87.10;;;;;;4995975;28;20034;-95
2023/06/17 03:56:19;;;;;;;5.97;4.65;;;17.10;87.60;;;;;;4979566;28;20053;-94
2023/06/17 03:58:44;;;;;;;6.38;4.55;;;17.00;88.10;;;;;;4979253;28;20276;-95
2023/06/17 04:01:12;;;;;;;7.97;4.70;;;17.10;88.00;;;;;;4996362;28;20022;-93
2023/06/17 04:03:40;;;;;;;8.35;4.68;;;17.10;88.40;;;;;;4995596;28;20027;-92
2023/06/17 04:06:06;;;;;;;7.47;4.53;;;17.10;88.00;;;;;;4979108;28;20479;-91
2023/06/17 04:08:32;;;;;;;6.45;5.00;;;17.00;89.10;;;;;;4977984;28;20495;-91
2023/06/17 04:10:59;;;;;;;5.40;3.65;;;17.00;89.00;;;;;;4978503;28;20050;-95
2023/06/17 04:13:24;;;;;;;7.03;3.90;;;17.00;88.10;;;;;;4978746;28;20034;-95
2023/06/17 04:15:50;;;;;;;7.15;5.20;;;17.10;87.40;;;;;;4978330;28;20061;-95
2023/06/17 04:18:16;;;;;;;7.25;4.40;;;17.00;87.90;;;;;;4995387;28;20080;-95
2023/06/17 04:20:42;;;;;;;7.00;4.32;;;17.00;87.80;;;;;;4995614;28;20030;-95
2023/06/17 04:23:07;;;;;;;6.50;4.30;;;17.00;87.50;;;;;;4977562;28;20125;-95
2023/06/17 04:25:36;;;;;;;8.05;4.18;;;16.80;87.60;;;;;;4977672;28;20032;-96
2023/06/17 04:28:02;;;;;;;6.03;4.18;;;16.90;87.80;;;;;;4978213;28;20121;-93
2023/06/17 04:30:28;;;;;;;5.25;4.20;;;16.90;87.60;;;;;;4978066;28;20533;-84
2023/06/17 04:32:58;;;;;;;7.07;3.97;;;16.90;87.60;;;;;;4977331;28;20022;-92
2023/06/17 04:35:24;;;;;;;5.47;4.03;;;17.00;87.00;;;;;;4995319;28;20030;-92
2023/06/17 04:37:53;;;;;;;5.53;4.15;;;17.00;87.40;;;;;;4977858;28;20470;-92
2023/06/17 04:40:23;;;;;;;7.50;4.50;;;17.00;87.80;;;;;;4978562;28;20022;-93
2023/06/17 04:42:51;;;;;;;10.65;4.72;;;17.00;87.70;;;;;;4994801;28;20026;-93
2023/06/17 04:45:17;;;;;;;10.10;4.45;;;17.10;87.30;;;;;;4995474;28;20026;-92
2023/06/17 04:47:46;;;;;;;7.32;4.82;;;17.20;87.70;;;;;;4994810;28;20452;-93
2023/06/17 04:50:15;;;;;;;10.07;5.00;;;17.20;87.70;;;;;;4977978;28;20089;-93
2023/06/17 04:52:42;;;;;;;5.80;4.05;;;17.30;87.40;;;;;;4977350;28;20112;-93
2023/06/17 04:55:11;;;;;;;5.93;4.45;;;17.30;87.60;;;;;;4977739;28;20081;-92
2023/06/17 04:57:37;;;;;;;8.63;4.63;;;17.40;87.40;;;;;;4977514;28;20026;-93
2023/06/17 05:00:05;;;;;;;6.60;4.30;;;17.40;87.20;;;;;;4995437;28;20069;-93
2023/06/17 05:02:31;;;;;;;5.80;4.50;;;17.40;87.70;;;;;;4978724;28;20018;-93
2023/06/17 05:04:56;;;;;;;9.43;5.20;;;17.50;87.90;;;;;;4978200;28;20379;-93
2023/06/17 05:07:22;;;;;;;7.97;5.00;;;17.50;88.10;;;;;;4995075;28;20053;-92
2023/06/17 05:09:47;;;;;;;8.70;4.97;;;17.50;88.40;;;;;;4977369;28;20062;-93
2023/06/17 05:12:13;;;;;;;9.65;5.03;;;17.60;88.20;;;;;;4992792;28;20498;-93
2023/06/17 05:14:38;;;;;;;7.18;5.05;;;17.60;88.00;;;;;;4994612;28;20026;-93
2023/06/17 05:17:04;;;;;;;10.80;5.43;;;17.70;88.50;;;;;;4993862;28;20141;-92
2023/06/17 05:19:30;;;;;;;6.97;5.00;;;17.70;88.40;;;;;;4994906;28;20035;-89
2023/06/17 05:21:55;;;;;;;9.38;5.32;;;17.80;88.60;;;;;;4994525;28;20026;-93
2023/06/17 05:24:21;;;;;;;7.50;4.90;;;17.80;88.70;;;;;;4995145;28;20500;-92
2023/06/17 05:26:47;;;;;;;10.15;5.20;;;17.90;88.30;;;;;;4994164;28;20114;-92
2023/06/17 05:29:12;;;;;;;8.57;5.50;;;17.90;88.70;;;;;;4994648;28;20479;-87
2023/06/17 05:31:38;;;;;;;8.00;5.35;;;17.90;89.20;;;;;;4994202;28;20407;-88
2023/06/17 05:34:03;;;;;;;7.15;4.93;;;18.00;89.80;;;;;;4993912;28;20033;-89
2023/06/17 05:36:29;;;;;;;8.50;6.50;;;18.00;90.30;;;;;;4998670;28;20058;-90
2023/06/17 05:38:55;;;;;;;8.82;5.97;;;18.00;90.70;;;;;;4996831;28;20077;-90
2023/06/17 05:41:21;;;;;;;12.20;5.15;;;18.00;90.80;;;;;;4989882;28;20022;-91
2023/06/17 05:43:48;;;;;;;7.70;5.47;;;18.10;90.80;;;;;;4981397;28;20125;-91
2023/06/17 05:46:13;;;;;;;9.85;5.57;;;18.10;91.00;;;;;;4980933;28;20034;-92
2023/06/17 05:48:39;;;;;;;8.18;5.22;;;18.10;91.10;;;;;;4980553;28;20042;-91
2023/06/17 05:51:05;;;;;;;11.25;5.40;;;18.10;91.00;;;;;;4998018;28;20459;-93
2023/06/17 05:53:31;;;;;;;10.13;5.55;;;18.20;91.00;;;;;;4980949;28;20030;-93
2023/06/17 05:55:56;;;;;;;8.02;5.40;;;18.30;91.10;;;;;;4980419;28;20030;-92
2023/06/17 05:58:22;;;;;;;10.52;5.82;;;18.30;91.30;;;;;;4980952;28;20045;-92
2023/06/17 06:00:47;;;;;;;9.45;6.03;;;18.30;90.80;;;;;;4980500;28;20049;-94
2023/06/17 06:03:13;;;;;;;10.57;4.80;;;18.40;90.60;;;;;;4998237;28;20037;-94
2023/06/17 06:05:38;;;;;;;9.20;5.30;;;18.50;90.60;;;;;;4980146;28;20025;-91
2023/06/17 06:08:04;;;;;;;9.25;5.28;;;18.50;90.80;;;;;;4997879;28;20030;-92
2023/06/17 06:10:30;;;;;;;7.10;5.05;;;18.50;90.80;;;;;;4997967;28;20159;-93
2023/06/17 06:12:55;;;;;;;12.50;5.55;;;18.60;90.70;;;;;;4980169;28;20099;-93
2023/06/17 06:15:21;;;;;;;6.85;5.30;;;18.60;90.80;;;;;;4981184;28;20034;-90
2023/06/17 06:17:47;;;;;;;6.40;4.70;;;18.60;90.70;;;;;;4980119;28;20077;-91
2023/06/17 06:20:14;;;;;;;12.20;6.18;;;18.70;90.30;;;;;;4980883;28;20027;-90
2023/06/17 06:22:40;;;;;;;7.20;5.45;;;18.70;90.20;;;;;;4979952;28;20034;-91
2023/06/17 06:25:06;;;;;;;8.95;5.20;;;18.80;89.80;;;;;;4980342;28;20113;-89
2023/06/17 06:27:31;;;;;;;6.95;4.93;;;18.80;89.50;;;;;;4978491;28;20023;-91
2023/06/17 06:29:57;;;;;;;7.30;4.50;;;18.90;86.90;;;;;;4977602;28;20030;-91
2023/06/17 06:32:23;;;;;;;8.90;4.82;;;19.00;85.90;;;;;;4978337;28;20411;-90
2023/06/17 06:34:48;;;;;;;7.30;4.85;;;19.00;85.30;;;;;;4964297;28;20621;-87
2023/06/17 06:37:14;;;;;;;7.50;5.00;;;19.10;85.10;;;;;;4987666;28;20025;-90
2023/06/17 06:39:40;;;;;;;7.18;4.63;;;19.20;84.90;;;;;;5012204;28;20034;-88
2023/06/17 06:42:06;;;;;;;7.35;5.30;;;19.20;84.90;;;;;;5002460;28;20018;-91
2023/06/17 06:44:31;;;;;;;7.93;5.20;;;19.30;84.10;;;;;;5012151;28;20026;-88
2023/06/17 06:46:57;;;;;;;10.60;5.40;;;19.30;84.70;;;;;;5004628;28;20030;-89
2023/06/17 06:49:23;;;;;;;9.82;5.10;;;19.40;85.30;;;;;;4993277;28;20022;-92
2023/06/17 06:51:48;;;;;;;6.70;4.93;;;19.40;84.50;;;;;;5002040;28;20045;-91
2023/06/17 06:54:14;;;;;;;9.10;5.15;;;19.50;83.10;;;;;;4996515;28;20106;-93
2023/06/17 06:56:40;;;;;;;9.07;5.63;;;19.50;83.70;;;;;;4979819;28;20026;-90
2023/06/17 06:59:05;;;;;;;7.65;5.13;;;19.60;83.60;;;;;;4996884;28;20498;-95
2023/06/17 07:01:31;;;;;;;9.82;5.07;;;19.60;83.40;;;;;;4995664;28;20022;-95
2023/06/17 07:03:57;;;;;;;7.60;5.03;;;19.60;84.50;;;;;;4995528;28;20085;-94
2023/06/17 07:06:23;;;;;;;7.15;5.40;;;19.70;84.60;;;;;;4995002;28;20068;-94
2023/06/17 07:08:48;;;;;;;6.95;5.28;;;19.80;84.10;;;;;;4996467;28;20054;-91
2023/06/17 07:11:14;;;;;;;8.77;4.75;;;19.80;84.00;;;;;;4998386;28;20069;-93
2023/06/17 07:13:40;;;;;;;7.20;5.03;;;19.90;83.90;;;;;;4981875;28;20527;-92
2023/06/17 07:16:05;;;;;;;8.35;4.75;;;19.90;84.50;;;;;;4995591;28;20026;-95
2023/06/17 07:18:31;;;;;;;8.32;4.72;;;19.90;84.30;;;;;;4978811;28;20494;-93
2023/06/17 07:20:57;;;;;;;6.97;4.65;;;20.00;84.40;;;;;;4994646;28;20411;-88
2023/06/17 07:23:24;;;;;;;9.50;4.80;;;20.10;84.70;;;;;;4979633;28;20034;-90
2023/06/17 07:25:49;;;;;;;9.90;4.55;;;20.20;83.60;;;;;;4995388;28;20015;-95
2023/06/17 07:28:15;;;;;;;7.35;4.47;;;20.20;82.50;;;;;;4979032;28;20036;-94
2023/06/17 07:30:41;;;;;;;8.07;5.40;;;20.20;82.20;;;;;;4994869;28;20455;-95
2023/06/17 07:33:07;;;;;;;9.00;4.78;;;20.30;83.00;;;;;;4994937;28;20038;-94
2023/06/17 07:35:32;;;;;;;9.27;4.95;;;20.30;82.90;;;;;;4978398;28;20018;-89
2023/06/17 07:37:58;;;;;;;8.32;5.50;;;20.30;83.10;;;;;;4978234;28;20022;-89
2023/06/17 07:40:23;;;;;;;7.28;4.78;;;20.40;83.20;;;;;;4978872;28;20022;-91
2023/06/17 07:42:49;;;;;;;7.72;4.85;;;20.50;82.70;;;;;;4996363;28;20497;-95
2023/06/17 07:45:15;;;;;;;8.48;5.38;;;20.50;82.10;;;;;;4995717;28;20065;-92
2023/06/17 07:47:41;;;;;;;7.97;4.70;;;20.60;82.40;;;;;;4979041;28;20464;-94
2023/06/17 07:50:10;;;;;;;8.23;4.70;;;20.60;82.20;;;;;;4976486;28;20105;-94
2023/06/17 07:52:36;;;;;;;7.40;4.28;;;20.70;82.30;;;;;;4996518;28;20022;-83
2023/06/17 07:55:07;;;;;;;7.25;4.43;;;20.70;81.80;;;;;;4978956;28;20478;-91
2023/06/17 07:57:33;;;;;;;7.07;4.57;;;20.70;81.60;;;;;;4981185;28;20030;-89
2023/06/17 07:59:58;;;;;;;9.05;4.78;;;20.80;81.20;;;;;;4982981;28;20041;-92
2023/06/17 08:02:24;;;;;;;8.48;5.03;;;20.80;81.20;;;;;;4994933;28;20030;-94
2023/06/17 08:04:50;;;;;;;7.65;4.82;;;20.80;81.20;;;;;;4973750;28;20462;-91
2023/06/17 08:07:16;;;;;;;7.30;5.10;;;20.80;80.90;;;;;;4977693;28;20014;-93
2023/06/17 08:09:42;;;;;;;8.32;4.90;;;21.00;80.20;;;;;;4995115;28;20046;-91
2023/06/17 08:12:08;;;;;;;8.25;4.68;;;21.00;80.30;;;;;;4977121;28;20041;-94
2023/06/17 08:14:33;;;;;;;8.68;4.45;;;21.00;80.30;;;;;;4995447;28;20038;-92
2023/06/17 08:16:59;;;;;;;6.90;4.63;;;21.10;80.90;;;;;;4979749;28;20030;-88
2023/06/17 08:19:24;;;;;;;7.20;4.70;;;21.10;80.80;;;;;;5002425;28;20101;-95
2023/06/17 08:21:50;;;;;;;7.45;4.88;;;21.20;81.00;;;;;;4989020;28;20355;-93
2023/06/17 08:24:26;;;;;;;7.63;4.53;;;21.20;80.00;;;;;;4984801;28;20518;-90
2023/06/17 08:26:53;;;;;;;8.27;4.68;;;21.40;80.00;;;;;;4991181;28;20018;-91
2023/06/17 08:29:19;;;;;;;7.15;4.63;;;21.40;79.50;;;;;;4989865;28;20018;-96
2023/06/17 08:31:47;;;;;;;9.95;4.75;;;21.40;79.80;;;;;;4994623;28;20022;-91
2023/06/17 08:34:13;;;;;;;6.65;5.05;;;21.50;79.40;;;;;;4994607;28;20124;-94
2023/06/17 08:36:43;;;;;;;8.13;5.07;;;21.50;78.70;;;;;;4988846;28;20034;-93
2023/06/17 08:39:09;;;;;;;7.82;4.65;;;21.50;78.60;;;;;;4988309;28;20022;-91
2023/06/17 08:41:40;;;;;;;10.15;4.72;;;21.50;78.20;;;;;;4988105;28;20033;-87
2023/06/17 08:44:08;;;;;;;8.68;4.53;;;21.60;78.90;;;;;;4990188;28;20022;-88
2023/06/17 08:46:34;;;;;;;6.82;4.63;;;21.70;78.30;;;;;;4979512;28;20039;-86
2023/06/17 08:49:04;;;;;;;8.60;4.30;;;21.70;78.20;;;;;;4980048;28;20058;-89
2023/06/17 08:51:31;;;;;;;7.15;4.65;;;21.70;77.50;;;;;;4978503;28;20037;-93
2023/06/17 08:53:57;;;;;;;5.97;4.43;;;21.80;76.50;;;;;;4976088;28;20115;-93
2023/06/17 08:56:22;;;;;;;8.13;4.50;;;21.90;76.90;;;;;;4994207;28;20074;-89
2023/06/17 08:58:50;;;;;;;6.05;4.20;;;21.90;76.40;;;;;;4980432;28;20057;-91
2023/06/17 09:01:17;;;;;;;5.70;4.43;;;21.90;75.20;;;;;;4989600;28;20464;-91
2023/06/17 09:03:43;;;;;;;9.70;4.47;;;21.90;75.00;;;;;;4978158;28;20034;-94
2023/06/17 09:06:23;;;;;;;5.85;3.90;;;21.90;74.90;;;;;;4977801;28;20026;-92
2023/06/17 09:08:50;;;;;;;5.18;4.00;;;22.00;73.40;;;;;;4994351;28;20027;-91
2023/06/17 09:11:27;;;;;;;9.88;4.28;;;22.00;73.20;;;;;;4977461;28;20145;-86
2023/06/17 09:13:54;;;;;;;5.55;3.97;;;22.10;73.40;;;;;;4961011;28;20026;-91
2023/06/17 09:16:33;;;;;;;5.70;3.50;;;22.20;73.30;;;;;;4981153;28;20057;-93
2023/06/17 09:19:01;;;;;;;5.47;3.70;;;22.30;71.00;;;;;;4994513;28;20444;-95
2023/06/17 09:21:27;;;;;;;6.22;3.67;;;22.30;69.80;;;;;;4981953;28;20360;-90
2023/06/17 09:24:01;;;;;;;5.47;3.53;;;22.40;69.10;;;;;;4993206;28;20172;-96
2023/06/17 09:26:32;;;;;;;8.05;3.25;;;22.40;68.00;;;;;;4965546;28;20117;-95
2023/06/17 09:29:06;;;;;;;4.43;3.22;;;22.40;67.10;;;;;;4982997;28;20050;-91
2023/06/17 09:31:42;;;;;;;5.75;3.55;;;22.40;67.50;;;;;;4976914;28;20050;-85
2023/06/17 09:34:10;;;;;;;4.45;3.33;;;22.40;68.30;;;;;;4962820;28;20045;-92
2023/06/17 09:36:38;;;;;;;4.60;3.53;;;22.50;69.10;;;;;;4993310;28;20039;-92
2023/06/17 09:39:08;;;;;;;5.60;3.75;;;22.60;68.50;;;;;;4986602;28;20114;-92
2023/06/17 09:41:42;;;;;;;7.00;3.35;;;22.60;68.00;;;;;;4993442;28;20034;-88
2023/06/17 09:44:08;;;;;;;4.53;3.15;;;22.50;67.40;;;;;;4989977;28;20026;-92
2023/06/17 09:46:36;;;;;;;7.38;3.70;;;22.60;69.00;;;;;;4993415;28;20038;-91
2023/06/17 09:49:15;;;;;;;4.30;3.10;;;22.80;67.20;;;;;;4993417;28;20106;-90
2023/06/17 09:51:41;;;;;;;18.38;3.60;;;22.90;66.80;;;;;;4975962;28;20379;-91
2023/06/17 09:54:08;;;;;;;9.23;3.80;;;23.00;66.20;;;;;;4991533;28;20054;-89
2023/06/17 09:56:34;;;;;;;5.55;3.90;;;23.00;66.10;;;;;;4992142;28;20094;-96
2023/06/17 09:59:08;;;;;;;5.28;3.50;;;23.00;64.80;;;;;;4986999;28;20034;-94
2023/06/17 10:01:38;;;;;;;6.65;3.67;;;23.00;64.80;;;;;;4978578;28;20093;-92
2023/06/17 10:04:04;;;;;;;5.68;3.28;;;23.00;64.80;;;;;;4994509;28;20031;-93
2023/06/17 10:06:32;;;;;;;6.10;3.10;;;23.10;64.90;;;;;;4976867;28;20486;-81
2023/06/17 10:08:57;;;;;;;4.60;2.92;;;23.20;64.50;;;;;;4978311;28;20049;-95
2023/06/17 10:11:25;;;;;;;5.60;3.30;;;23.30;62.60;;;;;;4977132;28;20484;-82
2023/06/17 10:14:01;;;;;;;4.80;3.38;;;23.50;60.40;;;;;;4975999;28;20031;-82
2023/06/17 10:16:30;;;;;;;5.63;3.17;;;23.60;57.40;;;;;;4993915;28;20031;-81
2023/06/17 10:18:59;;;;;;;6.25;3.03;;;23.70;55.70;;;;;;4993405;28;20018;-85
2023/06/17 10:21:27;;;;;;;5.43;3.05;;;23.90;56.10;;;;;;4994406;28;20022;-83
2023/06/17 10:23:55;;;;;;;4.05;3.00;;;24.00;56.30;;;;;;4979481;28;20084;-81
2023/06/17 10:26:21;;;;;;;4.47;3.15;;;24.00;56.50;;;;;;4979809;28;20427;-84
2023/06/17 10:28:53;;;;;;;5.20;3.13;;;24.10;56.50;;;;;;4996932;28;20072;-83
2023/06/17 10:31:39;;;;;;;4.35;3.20;;;24.00;56.70;;;;;;4992590;28;20022;-88
2023/06/17 10:34:05;;;;;;;4.40;3.08;;;24.10;56.60;;;;;;4975455;28;20307;-87
2023/06/17 10:36:35;;;;;;;6.07;3.10;;;24.20;55.00;;;;;;4996341;28;20023;-86
2023/06/17 10:39:10;;;;;;;4.30;3.10;;;24.20;55.20;;;;;;4996451;28;20030;-88
2023/06/17 10:41:59;;;;;;;4.72;3.00;;;24.40;56.00;;;;;;4997180;28;20030;-87
2023/06/17 10:44:40;;;;;;;5.78;3.45;;;24.50;55.80;;;;;;4995722;28;20065;-84
2023/06/17 10:47:18;;;;;;;6.32;3.53;;;24.60;56.00;;;;;;5049721;23;20045;-92
2023/06/17 10:49:46;;;;;;;8.73;3.53;;;24.50;55.60;;;;;;4995947;28;20022;-93
2023/06/17 10:52:14;;;;;;;5.35;3.50;;;24.40;56.50;;;;;;4988434;28;20054;-93
2023/06/17 10:54:55;;;;;;;4.55;3.17;;;24.30;55.90;;;;;;5003201;28;20090;-85
2023/06/17 10:57:34;;;;;;;5.50;3.22;;;24.30;56.10;;;;;;5371508;22;20049;-96
2023/06/17 11:00:10;;;;;;;4.55;3.30;;;24.30;56.60;;;;;;5039611;28;20420;-92
2023/06/17 11:02:40;;;;;;;5.13;3.20;;;24.50;56.90;;;;;;5023465;28;20055;-87
2023/06/17 11:05:07;;;;;;;5.22;3.42;;;24.50;56.70;;;;;;5042793;28;20031;-89
2023/06/17 11:07:32;;;;;;;7.15;3.33;;;24.50;56.50;;;;;;5045615;28;20029;-87
2023/06/17 11:09:59;;;;;;;5.03;3.35;;;24.60;55.80;;;;;;5040284;28;20117;-90
2023/06/17 11:12:24;;;;;;;5.18;3.22;;;24.60;55.90;;;;;;5037277;28;20033;-90
2023/06/17 11:14:50;;;;;;;5.45;3.17;;;24.70;55.20;;;;;;5039456;28;20082;-87
2023/06/17 11:17:15;;;;;;;4.25;3.00;;;24.70;55.00;;;;;;5056465;28;20086;-93
2023/06/17 11:19:41;;;;;;;4.07;2.90;;;24.70;55.00;;;;;;5048531;28;20123;-91
2023/06/17 11:22:07;;;;;;;4.10;3.22;;;24.70;54.50;;;;;;5056566;28;20032;-88
2023/06/17 11:24:34;;;;;;;4.28;2.78;;;24.70;54.00;;;;;;5051818;28;20167;-88
2023/06/17 11:27:01;;;;;;;5.75;3.63;;;24.70;53.70;;;;;;5024351;28;20093;-92
2023/06/17 11:29:28;;;;;;;3.20;2.83;;;24.80;54.90;;;;;;5037383;28;20040;-88
2023/06/17 11:31:54;;;;;;;5.05;3.33;;;24.90;55.10;;;;;;5036144;28;20037;-84
2023/06/17 11:34:22;;;;;;;5.55;3.25;;;25.10;55.10;;;;;;5036523;28;20029;-88
2023/06/17 11:36:54;;;;;;;8.75;3.15;;;25.10;54.60;;;;;;5050884;28;20035;-85
2023/06/17 11:39:23;;;;;;;4.93;2.97;;;25.10;54.60;;;;;;5043992;28;20428;-85
2023/06/17 11:41:51;;;;;;;5.90;3.53;;;25.30;53.90;;;;;;5042559;28;20032;-83
2023/06/17 11:44:18;;;;;;;4.30;3.65;;;25.30;54.20;;;;;;5050216;28;20438;-94
2023/06/17 11:46:43;;;;;;;8.57;3.47;;;25.40;53.30;;;;;;5046944;28;20085;-84
2023/06/17 11:49:09;;;;;;;4.00;3.20;;;25.40;52.90;;;;;;5027176;28;20113;-85
2023/06/17 11:51:36;;;;;;;6.10;3.15;;;25.50;53.50;;;;;;5030713;28;20061;-86
2023/06/17 11:54:05;;;;;;;5.10;3.45;;;25.50;53.00;;;;;;5036165;28;20037;-88
2023/06/17 11:56:32;;;;;;;3.95;3.40;;;25.60;52.90;;;;;;5020062;28;20033;-86
2023/06/17 11:58:58;;;;;;;3.95;3.15;;;25.60;52.70;;;;;;5040390;28;20063;-89
2023/06/17 12:01:25;;;;;;;7.38;3.40;;;25.70;52.50;;;;;;5045868;28;20029;-90
2023/06/17 12:03:51;;;;;;;4.15;3.13;;;25.70;52.20;;;;;;5036643;28;20029;-91
2023/06/17 12:06:18;;;;;;;6.07;2.95;;;25.70;52.70;;;;;;5054714;28;20032;-92
2023/06/17 12:08:44;;;;;;;6.03;3.33;;;25.90;52.80;;;;;;5035435;28;20029;-90
2023/06/17 12:11:35;;;;;;;4.10;3.40;;;26.00;52.80;;;;;;5029564;28;20029;-89
2023/06/17 12:14:12;;;;;;;5.72;3.15;;;26.10;52.20;;;;;;5033000;28;20572;-90
2023/06/17 12:16:41;;;;;;;7.43;3.30;;;26.10;52.40;;;;;;5040628;28;20089;-89
2023/06/17 12:19:23;;;;;;;4.93;3.28;;;26.20;52.60;;;;;;5052281;28;20029;-91
2023/06/17 12:21:49;;;;;;;6.13;3.50;;;26.20;51.30;;;;;;5036855;28;20051;-87
2023/06/17 12:24:15;;;;;;;4.88;3.28;;;26.30;51.50;;;;;;5027529;28;20073;-85
2023/06/17 12:26:41;;;;;;;5.03;3.28;;;26.30;51.50;;;;;;5024824;28;20477;-84
2023/06/17 12:29:09;;;;;;;5.60;3.45;;;26.40;52.00;;;;;;5027598;28;20458;-85
2023/06/17 12:31:35;;;;;;;5.30;3.80;;;26.40;52.60;;;;;;5033731;28;20231;-86
2023/06/17 12:34:01;;;;;;;6.45;3.58;;;26.50;51.80;;;;;;5053468;28;20085;-85
2023/06/17 12:36:27;;;;;;;4.32;3.25;;;26.50;51.00;;;;;;5037313;28;20025;-88
2023/06/17 12:38:53;;;;;;;5.32;3.45;;;26.60;51.30;;;;;;5018800;28;20029;-87
2023/06/17 12:41:19;;;;;;;5.13;3.20;;;26.60;51.10;;;;;;5044046;28;20100;-87
2023/06/17 12:43:45;;;;;;;4.60;3.33;;;26.70;50.80;;;;;;5045284;28;20449;-91
2023/06/17 12:46:10;;;;;;;5.95;3.53;;;26.80;50.90;;;;;;5038991;28;20064;-86